Itabira, Brazil
Current Conditions -  °F | °C
As of 7:00 AM on Friday 28 Nov 2014 (Local Time) from SBLS Reporting Station
Haze Haze  
Wind Chill: 70°   Ceiling: 8000
Heat Index: 70°   Visibility: 3mi
Dew Point: 66°   Wind: 0mph
Humidity: 88%   Direction: NA
Pressure: 30"   Gusts: NA
Location:  19.62°S, 43.23°W
Report Text: SBLS 280900Z 00000KT 5000 BR FEW001 OVC080 21/19 Q1016
Loading
Personal Weather Stations






























Interactive Weather Map New forecast layout! Learn more

10-Day Weather Forecast

Advertisements
Track Severe Weather on mobile